MSC Vigo — DITL2 — position and weather

sailwx.info

Track history (hours):
 
Tides and Currents Weather Stations Pressure Air Temp Water Temp Dewpoint Dewpoint Depression Visibility Wind Speed Wind Dir Waves Ship Positions

MSC Vigo

Last reported at 2017-Dec-25 23:38 UTC. Time now 2018-Jan-22 13:53 UTC.
Position N 36°38' E 026°32'.
Warning: this ship's position is 27 days out of date.

Length 270 m; draft 13 m.

Type: Ship (hazmat cat A). MMSI: 218853000.

Date/timePositionNaut miles runAvg speedWind from/ knotsBaromVisibWave heightAir tempDewpointWater temp
2017-Dec-25 23:38N 36°38' E 026°32'214.9
2017-Dec-25 23:30N 36°39' E 026°31'714.9
2017-Dec-25 23:00N 36°44' E 026°24'815.3
2017-Dec-25 22:30N 36°50' E 026°18'915.4
2017-Dec-25 21:56N 36°57' E 026°11'614.8
2017-Dec-25 21:30N 37°01' E 026°05'714.6
2017-Dec-25 21:00N 37°06' E 025°59'714.7
2017-Dec-25 20:30N 37°12' E 025°53'714.3
2017-Dec-25 20:00N 37°17' E 025°47'815.1
2017-Dec-25 19:30N 37°25' E 025°46'814.8
2017-Dec-25 18:57N 37°33' E 025°46'714.6
2017-Dec-25 18:29N 37°40' E 025°45'714.4
2017-Dec-25 18:00N 37°47' E 025°45'714.5
2017-Dec-25 17:30N 37°54' E 025°45'2114.3
2017-Dec-25 16:03N 38°15' E 025°44'114.4
2017-Dec-25 16:00N 38°16' E 025°43'1214.4
2017-Dec-25 15:09N 38°28' E 025°43'314.4
2017-Dec-25 14:57N 38°31' E 025°43'19412.6
2017-Dec-24 23:27N 40°53' E 028°35'511.3
2017-Dec-24 23:00N 40°56' E 028°40'2 3.2
2017-Dec-24 22:29N 40°58' E 028°41'0 0.0
2017-Dec-24 10:52N 40°58' E 028°41'0 0.0
2017-Dec-24 10:30N 40°58' E 028°41'0 1.0
2017-Dec-24 10:00N 40°57' E 028°41'2 0.5
2017-Dec-24 05:58N 40°56' E 028°39'0 0.0
2017-Dec-24 04:43N 40°56' E 028°39'0 0.0
2017-Dec-24 03:43N 40°56' E 028°39'0 0.0
2017-Dec-24 02:28N 40°56' E 028°39'0 0.1
2017-Dec-24 00:16N 40°56' E 028°39'0 0.6
2017-Dec-24 00:00N 40°55' E 028°39'4 7.3
2017-Dec-23 23:31N 40°55' E 028°34'813.9
2017-Dec-23 22:58N 40°54' E 028°25'248 7.0
2017-Dec-22 11:40N 37°59' E 024°38'313.4
2017-Dec-22 11:27N 37°56' E 024°36'613.2
2017-Dec-22 11:00N 37°52' E 024°32'714.2
2017-Dec-22 10:30N 37°48' E 024°24'1214.5
2017-Dec-22 09:41N 37°39' E 024°14'313.1
2017-Dec-22 09:26N 37°36' E 024°11'512.7
2017-Dec-22 09:00N 37°34' E 024°05'713.4
2017-Dec-22 08:30N 37°34' E 023°57'713.6
2017-Dec-22 08:00N 37°34' E 023°48'714.3
2017-Dec-22 07:30N 37°39' E 023°42'1019.3
2017-Dec-22 07:00N 37°48' E 023°37'816.0
2017-Dec-22 06:30N 37°56' E 023°36'1 2.7
2017-Dec-22 06:00N 37°57' E 023°36'0 0.0
2017-Dec-22 05:29N 37°57' E 023°36'0 0.0
2017-Dec-22 04:59N 37°57' E 023°36'0 0.0
2017-Dec-22 04:29N 37°57' E 023°36'0 0.0
2017-Dec-22 03:59N 37°57' E 023°36'0 0.0
2017-Dec-22 03:29N 37°57' E 023°36'0 0.0
2017-Dec-22 02:59N 37°57' E 023°36'0 0.0
2017-Dec-22 02:29N 37°57' E 023°36'0 0.0
2017-Dec-22 01:59N 37°57' E 023°36'0 0.0
2017-Dec-22 01:29N 37°57' E 023°36'0 0.0
2017-Dec-22 00:59N 37°57' E 023°36'0 0.0
2017-Dec-22 00:29N 37°57' E 023°36'0 0.0
2017-Dec-21 23:59N 37°57' E 023°36'0 0.0
2017-Dec-21 23:29N 37°57' E 023°36'0 0.0
2017-Dec-21 22:59N 37°57' E 023°36'0 0.0
2017-Dec-21 22:29N 37°57' E 023°36'0 0.0
2017-Dec-21 21:59N 37°57' E 023°36'0 0.0
2017-Dec-21 21:29N 37°57' E 023°36'0 0.0
2017-Dec-21 20:59N 37°57' E 023°36'0 0.0
2017-Dec-21 20:29N 37°57' E 023°36'0 0.0
2017-Dec-21 19:59N 37°57' E 023°36'0 0.0
2017-Dec-21 19:29N 37°57' E 023°36'0 0.0
2017-Dec-21 18:59N 37°57' E 023°36'0 0.0
2017-Dec-21 18:29N 37°57' E 023°36'0 0.0
2017-Dec-21 17:59N 37°57' E 023°36'0 0.0
2017-Dec-21 17:29N 37°57' E 023°36'0 0.0
2017-Dec-21 16:59N 37°57' E 023°36'0 0.0
2017-Dec-21 16:29N 37°57' E 023°36'0 0.0
2017-Dec-21 15:59N 37°57' E 023°36'0 0.4
2017-Dec-21 15:31N 37°57' E 023°36'2 4.2
2017-Dec-21 15:01N 37°55' E 023°37'0 0.6
2017-Dec-21 14:31N 37°55' E 023°37'2 3.4
2017-Dec-21 14:01N 37°53' E 023°38'1 2.3
2017-Dec-21 13:30N 37°52' E 023°38'2 3.9
2017-Dec-21 13:00N 37°50' E 023°37'1 1.4
2017-Dec-21 12:30N 37°51' E 023°37'1 1.3
2017-Dec-21 12:01N 37°51' E 023°37'1 1.4
2017-Dec-21 11:31N 37°52' E 023°37'1 1.3
2017-Dec-21 11:00N 37°53' E 023°36'1 1.2
2017-Dec-21 10:31N 37°53' E 023°36'1 1.1
2017-Dec-21 10:00N 37°54' E 023°36'1 1.0
2017-Dec-21 09:30N 37°54' E 023°36'1 1.4
2017-Dec-21 09:01N 37°54' E 023°36'3 5.7
2017-Dec-21 08:31N 37°51' E 023°38'510.2
2017-Dec-21 08:00N 37°47' E 023°42'612.2
2017-Dec-21 07:31N 37°41' E 023°45'611.9
2017-Dec-21 07:01N 37°36' E 023°46'612.3
2017-Dec-21 06:31N 37°30' E 023°44'612.3
2017-Dec-21 06:00N 37°24' E 023°42'611.9
2017-Dec-21 05:30N 37°18' E 023°40'2811.8
2017-Dec-21 03:08N 36°51' E 023°31'42412.5
2017-Dec-19 17:12N 36°25' E 014°43'314.0
2017-Dec-19 16:57N 36°27' E 014°39'613.8
2017-Dec-19 16:30N 36°30' E 014°32'713.3
2017-Dec-19 16:00N 36°33' E 014°25'612.9
2017-Dec-19 15:30N 36°36' E 014°18'612.8
2017-Dec-19 15:00N 36°40' E 014°12'713.9
2017-Dec-19 14:30N 36°43' E 014°04'815.4
2017-Dec-19 14:00N 36°47' E 013°56'715.1
2017-Dec-19 13:30N 36°51' E 013°48'714.7
2017-Dec-19 13:00N 36°55' E 013°40'714.6
2017-Dec-19 12:30N 36°58' E 013°32'24315.3
2017-Dec-18 20:35N 38°36' E 008°49'315.2
2017-Dec-18 20:24N 38°37' E 008°46'615.4
2017-Dec-18 20:00N 38°39' E 008°38'33715.0
2017-Dec-17 21:30N 41°18' E 002°10'1 0.1
2017-Dec-17 01:33N 41°19' E 002°09'0 0.0
2017-Dec-17 01:15N 41°19' E 002°09'0 0.0
2017-Dec-17 00:59N 41°19' E 002°09'1 1.9
2017-Dec-17 00:27N 41°19' E 002°10'3 7.3
2017-Dec-17 00:00N 41°16' E 002°12'4 7.3
2017-Dec-16 23:30N 41°14' E 002°15'0 0.7
2017-Dec-16 22:47N 41°13' E 002°15'1 2.1
2017-Dec-16 22:30N 41°13' E 002°15'3 5.8
2017-Dec-16 22:01N 41°10' E 002°16'3 1.9
2017-Dec-16 20:21N 41°07' E 002°15'2 1.2
2017-Dec-16 18:59N 41°07' E 002°13'1 1.3
2017-Dec-16 18:30N 41°07' E 002°12'1 1.6
2017-Dec-16 18:00N 41°07' E 002°11'1 1.7
2017-Dec-16 17:30N 41°07' E 002°10'1 1.8
2017-Dec-16 16:54N 41°07' E 002°09'1 1.9
2017-Dec-16 16:30N 41°07' E 002°08'1 2.8
2017-Dec-16 16:00N 41°06' E 002°06'612.5
2017-Dec-16 15:30N 41°01' E 002°01'816.0
2017-Dec-16 15:00N 40°54' E 001°56'21014.5
2017-Dec-16 00:35N 37°51' W 000°16'115.4
2017-Dec-16 00:30N 37°50' W 000°17'815.2
2017-Dec-16 00:00N 37°44' W 000°22'  
Track history (hours):
 
Tides and Currents Weather Stations Pressure Air Temp Water Temp Dewpoint Dewpoint Depression Visibility Wind Speed Wind Dir Waves Ship Positions

MSC Vigo

Last reported at 2017-Dec-25 23:38 UTC. Time now 2018-Jan-22 13:53 UTC.
Position N 36°38' E 026°32'.
Warning: this ship's position is 27 days out of date.

Length 270 m; draft 13 m.

Type: Ship (hazmat cat A). MMSI: 218853000.

Date/timePositionNaut miles runAvg speedWind from/ knotsBaromVisibWave heightAir tempDewpointWater temp
2017-Dec-25 23:38N 36°38' E 026°32'214.9
2017-Dec-25 23:30N 36°39' E 026°31'714.9
2017-Dec-25 23:00N 36°44' E 026°24'815.3
2017-Dec-25 22:30N 36°50' E 026°18'915.4
2017-Dec-25 21:56N 36°57' E 026°11'614.8
2017-Dec-25 21:30N 37°01' E 026°05'714.6
2017-Dec-25 21:00N 37°06' E 025°59'714.7
2017-Dec-25 20:30N 37°12' E 025°53'714.3
2017-Dec-25 20:00N 37°17' E 025°47'815.1
2017-Dec-25 19:30N 37°25' E 025°46'814.8
2017-Dec-25 18:57N 37°33' E 025°46'714.6
2017-Dec-25 18:29N 37°40' E 025°45'714.4
2017-Dec-25 18:00N 37°47' E 025°45'714.5
2017-Dec-25 17:30N 37°54' E 025°45'2114.3
2017-Dec-25 16:03N 38°15' E 025°44'114.4
2017-Dec-25 16:00N 38°16' E 025°43'1214.4
2017-Dec-25 15:09N 38°28' E 025°43'314.4
2017-Dec-25 14:57N 38°31' E 025°43'19412.6
2017-Dec-24 23:27N 40°53' E 028°35'511.3
2017-Dec-24 23:00N 40°56' E 028°40'2 3.2
2017-Dec-24 22:29N 40°58' E 028°41'0 0.0
2017-Dec-24 10:52N 40°58' E 028°41'0 0.0
2017-Dec-24 10:30N 40°58' E 028°41'0 1.0
2017-Dec-24 10:00N 40°57' E 028°41'2 0.5
2017-Dec-24 05:58N 40°56' E 028°39'0 0.0
2017-Dec-24 04:43N 40°56' E 028°39'0 0.0
2017-Dec-24 03:43N 40°56' E 028°39'0 0.0
2017-Dec-24 02:28N 40°56' E 028°39'0 0.1
2017-Dec-24 00:16N 40°56' E 028°39'0 0.6
2017-Dec-24 00:00N 40°55' E 028°39'4 7.3
2017-Dec-23 23:31N 40°55' E 028°34'813.9
2017-Dec-23 22:58N 40°54' E 028°25'248 7.0
2017-Dec-22 11:40N 37°59' E 024°38'313.4
2017-Dec-22 11:27N 37°56' E 024°36'613.2
2017-Dec-22 11:00N 37°52' E 024°32'714.2
2017-Dec-22 10:30N 37°48' E 024°24'1214.5
2017-Dec-22 09:41N 37°39' E 024°14'313.1
2017-Dec-22 09:26N 37°36' E 024°11'512.7
2017-Dec-22 09:00N 37°34' E 024°05'713.4
2017-Dec-22 08:30N 37°34' E 023°57'713.6
2017-Dec-22 08:00N 37°34' E 023°48'714.3
2017-Dec-22 07:30N 37°39' E 023°42'1019.3
2017-Dec-22 07:00N 37°48' E 023°37'816.0
2017-Dec-22 06:30N 37°56' E 023°36'1 2.7
2017-Dec-22 06:00N 37°57' E 023°36'0 0.0
2017-Dec-22 05:29N 37°57' E 023°36'0 0.0
2017-Dec-22 04:59N 37°57' E 023°36'0 0.0
2017-Dec-22 04:29N 37°57' E 023°36'0 0.0
2017-Dec-22 03:59N 37°57' E 023°36'0 0.0
2017-Dec-22 03:29N 37°57' E 023°36'0 0.0
2017-Dec-22 02:59N 37°57' E 023°36'0 0.0
2017-Dec-22 02:29N 37°57' E 023°36'0 0.0
2017-Dec-22 01:59N 37°57' E 023°36'0 0.0
2017-Dec-22 01:29N 37°57' E 023°36'0 0.0
2017-Dec-22 00:59N 37°57' E 023°36'0 0.0
2017-Dec-22 00:29N 37°57' E 023°36'0 0.0
2017-Dec-21 23:59N 37°57' E 023°36'0 0.0
2017-Dec-21 23:29N 37°57' E 023°36'0 0.0
2017-Dec-21 22:59N 37°57' E 023°36'0 0.0
2017-Dec-21 22:29N 37°57' E 023°36'0 0.0
2017-Dec-21 21:59N 37°57' E 023°36'0 0.0
2017-Dec-21 21:29N 37°57' E 023°36'0 0.0
2017-Dec-21 20:59N 37°57' E 023°36'0 0.0
2017-Dec-21 20:29N 37°57' E 023°36'0 0.0
2017-Dec-21 19:59N 37°57' E 023°36'0 0.0
2017-Dec-21 19:29N 37°57' E 023°36'0 0.0
2017-Dec-21 18:59N 37°57' E 023°36'0 0.0
2017-Dec-21 18:29N 37°57' E 023°36'0 0.0
2017-Dec-21 17:59N 37°57' E 023°36'0 0.0
2017-Dec-21 17:29N 37°57' E 023°36'0 0.0
2017-Dec-21 16:59N 37°57' E 023°36'0 0.0
2017-Dec-21 16:29N 37°57' E 023°36'0 0.0
2017-Dec-21 15:59N 37°57' E 023°36'0 0.4
2017-Dec-21 15:31N 37°57' E 023°36'2 4.2
2017-Dec-21 15:01N 37°55' E 023°37'0 0.6
2017-Dec-21 14:31N 37°55' E 023°37'2 3.4
2017-Dec-21 14:01N 37°53' E 023°38'1 2.3
2017-Dec-21 13:30N 37°52' E 023°38'2 3.9
2017-Dec-21 13:00N 37°50' E 023°37'1 1.4
2017-Dec-21 12:30N 37°51' E 023°37'1 1.3
2017-Dec-21 12:01N 37°51' E 023°37'1 1.4
2017-Dec-21 11:31N 37°52' E 023°37'1 1.3
2017-Dec-21 11:00N 37°53' E 023°36'1 1.2
2017-Dec-21 10:31N 37°53' E 023°36'1 1.1
2017-Dec-21 10:00N 37°54' E 023°36'1 1.0
2017-Dec-21 09:30N 37°54' E 023°36'1 1.4
2017-Dec-21 09:01N 37°54' E 023°36'3 5.7
2017-Dec-21 08:31N 37°51' E 023°38'510.2
2017-Dec-21 08:00N 37°47' E 023°42'612.2
2017-Dec-21 07:31N 37°41' E 023°45'611.9
2017-Dec-21 07:01N 37°36' E 023°46'612.3
2017-Dec-21 06:31N 37°30' E 023°44'612.3
2017-Dec-21 06:00N 37°24' E 023°42'611.9
2017-Dec-21 05:30N 37°18' E 023°40'2811.8
2017-Dec-21 03:08N 36°51' E 023°31'42412.5
2017-Dec-19 17:12N 36°25' E 014°43'314.0
2017-Dec-19 16:57N 36°27' E 014°39'613.8
2017-Dec-19 16:30N 36°30' E 014°32'713.3
2017-Dec-19 16:00N 36°33' E 014°25'612.9
2017-Dec-19 15:30N 36°36' E 014°18'612.8
2017-Dec-19 15:00N 36°40' E 014°12'713.9
2017-Dec-19 14:30N 36°43' E 014°04'815.4
2017-Dec-19 14:00N 36°47' E 013°56'715.1
2017-Dec-19 13:30N 36°51' E 013°48'714.7
2017-Dec-19 13:00N 36°55' E 013°40'714.6
2017-Dec-19 12:30N 36°58' E 013°32'24315.3
2017-Dec-18 20:35N 38°36' E 008°49'315.2
2017-Dec-18 20:24N 38°37' E 008°46'615.4
2017-Dec-18 20:00N 38°39' E 008°38'33715.0
2017-Dec-17 21:30N 41°18' E 002°10'1 0.1
2017-Dec-17 01:33N 41°19' E 002°09'0 0.0
2017-Dec-17 01:15N 41°19' E 002°09'0 0.0
2017-Dec-17 00:59N 41°19' E 002°09'1 1.9
2017-Dec-17 00:27N 41°19' E 002°10'3 7.3
2017-Dec-17 00:00N 41°16' E 002°12'4 7.3
2017-Dec-16 23:30N 41°14' E 002°15'0 0.7
2017-Dec-16 22:47N 41°13' E 002°15'1 2.1
2017-Dec-16 22:30N 41°13' E 002°15'3 5.8
2017-Dec-16 22:01N 41°10' E 002°16'3 1.9
2017-Dec-16 20:21N 41°07' E 002°15'2 1.2
2017-Dec-16 18:59N 41°07' E 002°13'1 1.3
2017-Dec-16 18:30N 41°07' E 002°12'1 1.6
2017-Dec-16 18:00N 41°07' E 002°11'1 1.7
2017-Dec-16 17:30N 41°07' E 002°10'1 1.8
2017-Dec-16 16:54N 41°07' E 002°09'1 1.9
2017-Dec-16 16:30N 41°07' E 002°08'1 2.8
2017-Dec-16 16:00N 41°06' E 002°06'612.5
2017-Dec-16 15:30N 41°01' E 002°01'816.0
2017-Dec-16 15:00N 40°54' E 001°56'21014.5
2017-Dec-16 00:35N 37°51' W 000°16'115.4
2017-Dec-16 00:30N 37°50' W 000°17'815.2
2017-Dec-16 00:00N 37°44' W 000°22'  

Dump ship's entire track history